createdAt,value
2018-11-22T00:00:23.905Z,26.40
2018-11-22T00:03:08.205Z,25.97
2018-11-22T00:05:59.492Z,25.73
2018-11-22T00:08:43.651Z,25.77
2018-11-22T00:11:34.859Z,26.10
2018-11-22T00:14:18.600Z,27.07
2018-11-22T00:17:09.864Z,26.50
2018-11-22T00:19:55.960Z,23.37
2018-11-22T00:22:45.126Z,24.47
2018-11-22T00:25:36.360Z,24.83
2018-11-22T00:28:19.795Z,23.87
2018-11-22T00:31:13.951Z,24.43
2018-11-22T00:33:58.109Z,24.87
2018-11-22T00:36:46.631Z,25.00
2018-11-22T00:39:30.223Z,23.73
2018-11-22T00:42:21.432Z,25.40
2018-11-22T00:45:05.965Z,24.63
2018-11-22T00:48:00.451Z,24.27
2018-11-22T00:50:29.714Z,27.60
2018-11-22T00:53:20.951Z,30.10
2018-11-22T00:56:04.489Z,24.70
2018-11-22T00:58:55.700Z,23.77
2018-11-22T01:01:39.129Z,24.80
2018-11-22T01:04:32.379Z,24.97
2018-11-22T01:07:14.283Z,25.07
2018-11-22T01:10:05.725Z,25.60
2018-11-22T01:12:49.668Z,25.97
2018-11-22T01:15:40.877Z,24.60
2018-11-22T01:18:24.330Z,25.33
2018-11-22T01:21:17.722Z,25.57
2018-11-22T01:23:59.786Z,25.60
2018-11-22T01:26:51.037Z,24.20
2018-11-22T01:29:37.838Z,24.60
2018-11-22T01:32:26.378Z,25.67
2018-11-22T01:35:10.734Z,25.83
2018-11-22T01:38:01.980Z,25.23
2018-11-22T01:40:46.098Z,25.53
2018-11-22T01:43:37.367Z,24.73
2018-11-22T01:46:21.056Z,25.83
2018-11-22T01:49:12.313Z,25.07
2018-11-22T01:52:03.563Z,24.67
2018-11-22T01:54:55.010Z,24.33
2018-11-22T01:57:42.108Z,24.90
2018-11-22T02:00:30.255Z,24.83
2018-11-22T02:03:13.899Z,26.63
2018-11-22T02:06:05.099Z,25.33
2018-11-22T02:08:50.701Z,24.57
2018-11-22T02:11:41.402Z,24.27
2018-11-22T02:14:25.052Z,24.27
2018-11-22T02:17:16.338Z,25.07
2018-11-22T02:20:00.621Z,24.57
2018-11-22T02:22:51.975Z,24.57
2018-11-22T02:25:36.282Z,25.17
2018-11-22T02:28:27.483Z,25.43
2018-11-22T02:31:11.268Z,25.67
2018-11-22T02:34:02.926Z,25.60
2018-11-22T02:36:54.158Z,24.77
2018-11-22T02:39:39.947Z,24.97
2018-11-22T02:42:29.067Z,24.93
2018-11-22T02:45:14.295Z,25.67
2018-11-22T02:48:07.553Z,25.23
2018-11-22T02:50:49.643Z,24.53
2018-11-22T02:53:40.857Z,26.03
2018-11-22T02:56:24.333Z,24.93
2018-11-22T02:59:15.553Z,25.43
2018-11-22T03:01:59.295Z,24.13
2018-11-22T03:04:50.558Z,24.83
2018-11-22T03:07:34.388Z,25.27
2018-11-22T03:10:25.607Z,24.73
2018-11-22T03:13:09.537Z,25.87
2018-11-22T03:16:02.779Z,23.20
2018-11-22T03:18:44.266Z,24.23
2018-11-22T03:21:35.541Z,24.40
2018-11-22T03:24:19.070Z,24.40
2018-11-22T03:27:10.330Z,24.47
2018-11-22T03:29:53.950Z,24.23
2018-11-22T03:32:45.194Z,24.23
2018-11-22T03:35:29.493Z,24.77
2018-11-22T03:38:20.705Z,24.73
2018-11-22T03:41:04.450Z,24.00
2018-11-22T03:43:55.997Z,24.73
2018-11-22T03:46:39.442Z,24.13
2018-11-22T03:49:30.648Z,24.93
2018-11-22T03:52:14.965Z,24.20
2018-11-22T03:55:07.401Z,24.83
2018-11-22T03:57:51.428Z,25.27
2018-11-22T04:00:42.673Z,25.93
2018-11-22T04:03:26.927Z,24.73
2018-11-22T04:06:18.551Z,25.57
2018-11-22T04:09:04.330Z,23.53
2018-11-22T04:11:53.534Z,25.33
2018-11-22T04:14:37.121Z,25.13
2018-11-22T04:17:28.382Z,25.87
2018-11-22T04:20:14.587Z,25.33
2018-11-22T04:23:06.234Z,25.70
2018-11-22T04:25:49.515Z,26.00
2018-11-22T04:28:40.719Z,26.60
2018-11-22T04:31:27.247Z,25.73
2018-11-22T04:34:34.689Z,26.20
2018-11-22T04:37:18.414Z,25.60
2018-11-22T04:40:12.693Z,25.70
2018-11-22T04:42:57.012Z,25.80
2018-11-22T04:45:48.841Z,26.00
2018-11-22T04:48:33.127Z,25.60
2018-11-22T04:51:24.340Z,25.53
2018-11-22T04:54:08.072Z,25.20
2018-11-22T04:56:59.282Z,26.67
2018-11-22T04:59:50.049Z,25.50
2018-11-22T05:02:34.101Z,24.47
2018-11-22T05:05:18.706Z,26.10
2018-11-22T05:08:09.954Z,24.93
2018-11-22T05:10:53.825Z,26.37
2018-11-22T05:13:45.131Z,24.70
2018-11-22T05:16:28.674Z,24.13
2018-11-22T05:19:19.923Z,24.97
2018-11-22T05:22:03.970Z,24.93
2018-11-22T05:24:55.227Z,24.73
2018-11-22T05:27:41.588Z,24.83
2018-11-22T05:30:31.161Z,24.33
2018-11-22T05:33:14.867Z,23.40
2018-11-22T12:15:52.994Z,14.70
2018-11-22T12:18:23.739Z,14.77
2018-11-22T12:20:54.533Z,14.33
2018-11-22T12:23:25.373Z,14.73
2018-11-22T12:25:56.106Z,16.07
2018-11-22T12:28:26.923Z,16.33
2018-11-22T12:30:57.704Z,15.43
2018-11-22T12:33:44.542Z,16.47
2018-11-22T12:36:20.520Z,16.10
2018-11-22T12:38:51.339Z,15.80
2018-11-22T12:41:22.077Z,16.67
2018-11-22T12:43:52.928Z,16.10
2018-11-22T12:46:23.694Z,15.77
2018-11-22T12:48:54.467Z,16.33
2018-11-22T12:51:25.267Z,16.37
2018-11-22T12:53:55.973Z,14.93
2018-11-22T12:56:26.769Z,15.77
2018-11-22T12:58:57.527Z,15.63
2018-11-22T13:01:28.303Z,15.80
2018-11-22T13:03:59.122Z,15.47
2018-11-22T13:06:29.887Z,13.77
2018-11-22T13:09:00.657Z,14.80
2018-11-22T13:11:31.417Z,14.70
2018-11-22T13:14:02.166Z,15.73
2018-11-22T13:16:33.112Z,16.13
2018-11-22T13:19:03.949Z,14.77
2018-11-22T13:21:34.735Z,14.57
2018-11-22T13:24:06.106Z,14.80
2018-11-22T13:26:36.980Z,14.17
2018-11-22T13:29:07.744Z,14.33
2018-11-22T13:31:38.583Z,14.83
2018-11-22T13:34:09.361Z,14.70
2018-11-22T13:36:40.061Z,15.03
2018-11-22T13:39:11.847Z,14.30
2018-11-22T13:41:42.619Z,14.73
2018-11-22T13:44:13.559Z,14.47
2018-11-22T13:46:44.421Z,14.23
2018-11-22T13:49:15.243Z,13.93
2018-11-22T13:51:46.026Z,14.27
2018-11-22T13:54:16.811Z,13.53
2018-11-22T13:56:47.480Z,13.10
2018-11-22T13:59:18.230Z,13.40
2018-11-22T14:01:48.974Z,13.40
2018-11-22T14:04:19.983Z,12.37
2018-11-22T14:06:50.758Z,11.03
2018-11-22T14:09:21.559Z,12.20
2018-11-22T14:11:52.334Z,12.47
2018-11-22T14:14:23.138Z,12.43
2018-11-22T14:16:53.958Z,12.20
2018-11-22T14:19:24.727Z,11.67
2018-11-22T14:21:55.498Z,12.43
2018-11-22T14:24:27.028Z,11.60
2018-11-22T14:26:57.866Z,10.83
2018-11-22T14:29:28.724Z,11.70
2018-11-22T14:31:59.770Z,11.87
2018-11-22T14:34:30.524Z,12.37
2018-11-22T14:37:01.206Z,12.30
2018-11-22T14:39:32.042Z,12.63
2018-11-22T14:42:02.979Z,12.77
2018-11-22T14:44:33.872Z,12.03
2018-11-22T14:47:04.823Z,12.43
2018-11-22T14:49:35.590Z,12.13
2018-11-22T14:52:07.242Z,12.90
2018-11-22T14:54:38.027Z,12.87
2018-11-22T14:57:08.880Z,13.23
2018-11-22T14:59:39.576Z,12.23
2018-11-22T15:02:10.379Z,12.73
2018-11-22T15:04:41.054Z,13.23
2018-11-22T15:07:11.910Z,12.20
2018-11-22T15:09:42.708Z,12.57
2018-11-22T15:12:13.490Z,12.30
2018-11-22T15:14:44.284Z,12.03
2018-11-22T15:17:15.029Z,12.67
2018-11-22T15:19:45.746Z,12.80
2018-11-22T15:22:16.506Z,12.47
2018-11-22T15:24:47.321Z,12.50
2018-11-22T15:27:18.094Z,12.47
2018-11-22T15:29:48.849Z,12.60
2018-11-22T15:32:19.575Z,12.63
2018-11-22T15:34:50.317Z,11.73
2018-11-22T15:37:21.090Z,12.50
2018-11-22T15:39:51.942Z,11.87
2018-11-22T15:42:22.713Z,11.57
2018-11-22T15:44:53.422Z,11.13
2018-11-22T15:47:24.199Z,11.30
2018-11-22T15:49:54.938Z,10.90
2018-11-22T15:52:25.672Z,11.50
2018-11-22T15:54:56.452Z,11.67
2018-11-22T15:57:27.131Z,11.03
2018-11-22T15:59:58.017Z,11.43
2018-11-22T16:02:28.816Z,11.07
2018-11-22T16:04:59.570Z,11.70
2018-11-22T16:07:30.374Z,10.97
2018-11-22T16:10:01.118Z,11.10
2018-11-22T16:12:31.943Z,11.30
2018-11-22T16:15:02.664Z,11.63
2018-11-22T16:17:33.426Z,11.03
2018-11-22T16:20:04.307Z,11.60
2018-11-22T16:22:35.150Z,10.73
2018-11-22T16:25:07.809Z,10.77
2018-11-22T16:27:38.862Z,11.90
2018-11-22T16:30:17.211Z,11.30
2018-11-22T16:32:48.152Z,12.20
2018-11-22T16:35:19.933Z,11.97
2018-11-22T16:37:50.772Z,11.43
2018-11-22T16:40:25.020Z,11.53
2018-11-22T16:42:56.812Z,11.67
2018-11-22T16:45:30.664Z,12.90
2018-11-22T16:48:02.860Z,12.50
2018-11-22T16:50:34.646Z,11.90
2018-11-22T16:53:05.782Z,11.77
2018-11-22T16:55:36.614Z,11.47
2018-11-22T16:58:08.338Z,12.73
2018-11-22T17:00:40.014Z,12.20
2018-11-22T17:03:13.291Z,12.87
2018-11-22T17:05:44.677Z,12.13
2018-11-22T17:08:15.452Z,12.53
2018-11-22T17:13:48.390Z,12.77
2018-11-22T17:16:19.306Z,12.17
2018-11-22T17:18:50.564Z,12.47
2018-11-22T17:21:21.365Z,12.23
2018-11-22T17:23:52.214Z,12.83
2018-11-22T17:26:23.713Z,12.80
2018-11-22T17:31:39.935Z,12.13
2018-11-22T17:34:10.622Z,11.97
2018-11-22T17:36:41.317Z,12.53
2018-11-22T17:39:14.411Z,12.93
2018-11-22T17:41:45.076Z,12.33
2018-11-22T17:44:15.704Z,12.53
2018-11-22T17:46:46.417Z,12.93
2018-11-22T17:49:17.119Z,12.60
2018-11-22T17:51:47.935Z,12.67
2018-11-22T17:54:18.657Z,12.40
2018-11-22T17:56:49.443Z,12.97
2018-11-22T17:59:20.220Z,13.33
2018-11-22T18:01:51.049Z,12.53
2018-11-22T18:04:21.728Z,12.67
2018-11-22T18:06:52.452Z,12.70
2018-11-22T18:09:23.091Z,13.77
2018-11-22T18:11:53.732Z,12.93
2018-11-22T18:14:24.414Z,12.57
2018-11-22T18:16:55.069Z,12.13
2018-11-22T18:19:25.716Z,13.63
2018-11-22T18:21:56.479Z,12.70
2018-11-22T18:24:27.864Z,12.60
2018-11-22T18:26:58.506Z,13.83
2018-11-22T18:29:29.174Z,13.10
2018-11-22T18:31:59.827Z,12.60
2018-11-22T18:34:30.519Z,13.53
2018-11-22T18:37:01.154Z,13.83
2018-11-22T18:39:31.777Z,13.33
2018-11-22T18:42:02.387Z,12.37
2018-11-22T18:44:33.170Z,14.23
2018-11-22T18:47:03.916Z,14.10
2018-11-22T18:49:34.562Z,13.33
2018-11-22T18:52:05.234Z,13.43
2018-11-22T18:54:35.877Z,13.80
2018-11-22T18:57:06.885Z,13.80
2018-11-22T18:59:38.070Z,13.83
2018-11-22T19:02:09.084Z,13.77
2018-11-22T19:04:39.735Z,13.33
2018-11-22T19:07:10.509Z,14.53
2018-11-22T19:09:41.122Z,14.93
2018-11-22T19:12:11.860Z,14.83
2018-11-22T19:14:42.640Z,14.10
2018-11-22T19:17:13.505Z,14.67
2018-11-22T19:19:44.207Z,14.90
2018-11-22T19:22:15.167Z,15.87
2018-11-22T19:24:45.827Z,14.87
2018-11-22T19:27:17.043Z,15.43
2018-11-22T19:29:47.772Z,15.63
2018-11-22T19:32:18.741Z,14.67
2018-11-22T19:34:49.402Z,15.23
2018-11-22T19:37:20.050Z,15.60
2018-11-22T19:39:50.725Z,16.27
2018-11-22T19:42:21.382Z,15.10
2018-11-22T19:44:52.057Z,15.47
2018-11-22T19:47:22.743Z,16.40
2018-11-22T19:49:53.577Z,15.03
2018-11-22T19:52:24.273Z,15.40
2018-11-22T19:54:54.984Z,15.13
2018-11-22T19:57:25.662Z,15.10
2018-11-22T19:59:56.333Z,15.33
2018-11-22T20:02:27.006Z,15.67
2018-11-22T20:04:57.708Z,15.07
2018-11-22T20:07:28.413Z,15.73
2018-11-22T20:09:59.141Z,15.17
2018-11-22T20:12:30.145Z,14.80
2018-11-22T20:15:00.836Z,14.27
2018-11-22T20:17:31.529Z,14.90
2018-11-22T20:20:03.755Z,15.87
2018-11-22T20:22:34.948Z,15.60
2018-11-22T20:25:06.541Z,15.83
2018-11-22T20:27:38.387Z,15.43
2018-11-22T20:30:19.723Z,15.67
2018-11-22T20:32:50.711Z,15.20
2018-11-22T20:35:22.331Z,15.10
2018-11-22T20:37:53.850Z,16.00
2018-11-22T20:40:26.325Z,14.60
2018-11-22T20:42:57.717Z,15.40
2018-11-22T20:45:29.440Z,14.47
2018-11-22T20:48:01.738Z,14.87
2018-11-22T20:50:33.025Z,14.97
2018-11-22T20:53:03.713Z,15.17
2018-11-22T20:55:35.841Z,17.00
2018-11-22T20:58:07.112Z,15.47
2018-11-22T21:00:39.250Z,15.67
2018-11-22T21:03:09.964Z,16.23
2018-11-22T21:05:40.673Z,16.50
2018-11-22T21:08:11.364Z,16.03
2018-11-22T21:10:42.097Z,15.67
2018-11-22T21:13:12.764Z,14.67
2018-11-22T21:15:43.450Z,16.00
2018-11-22T21:18:14.123Z,16.03
2018-11-22T21:20:44.833Z,15.63
2018-11-22T21:23:15.488Z,16.23
2018-11-22T21:25:46.188Z,15.97
2018-11-22T21:28:16.802Z,16.43
2018-11-22T21:30:47.513Z,16.00
2018-11-22T21:33:18.208Z,15.63
2018-11-22T21:35:48.881Z,16.30
2018-11-22T21:38:19.541Z,17.10
2018-11-22T21:40:50.160Z,15.87
2018-11-22T21:43:20.884Z,15.83
2018-11-22T21:45:51.576Z,14.77
2018-11-22T21:48:22.273Z,14.80
2018-11-22T21:50:52.962Z,15.60
2018-11-22T21:53:23.641Z,15.93
2018-11-22T21:55:54.390Z,15.33
2018-11-22T21:58:25.096Z,15.00
2018-11-22T22:00:55.804Z,15.83
2018-11-22T22:03:26.536Z,15.77
2018-11-22T22:05:57.323Z,15.87
2018-11-22T22:08:27.946Z,15.50
2018-11-22T22:10:58.673Z,15.47
2018-11-22T22:13:29.380Z,16.17
2018-11-22T22:16:00.073Z,15.73
2018-11-22T22:18:30.735Z,15.67
2018-11-22T22:21:01.443Z,15.40
2018-11-22T22:23:32.046Z,17.23
2018-11-22T22:26:02.748Z,15.10
2018-11-22T22:28:33.394Z,16.03
2018-11-22T22:31:04.091Z,16.63
2018-11-22T22:33:34.836Z,16.50
2018-11-22T22:36:05.847Z,16.70
2018-11-22T22:38:36.548Z,16.00
2018-11-22T22:41:07.309Z,15.33
2018-11-22T22:43:38.036Z,15.63
2018-11-22T22:46:08.903Z,16.00
2018-11-22T22:48:39.544Z,15.87
2018-11-22T22:51:10.227Z,15.27
2018-11-22T22:53:40.941Z,16.23
2018-11-22T22:56:11.654Z,16.03
2018-11-22T22:58:42.316Z,16.20
2018-11-22T23:01:12.988Z,15.03
2018-11-22T23:03:43.771Z,16.63
2018-11-22T23:06:14.453Z,16.40
2018-11-22T23:08:45.193Z,16.23
2018-11-22T23:11:15.901Z,15.53
2018-11-22T23:13:46.557Z,16.03
2018-11-22T23:16:17.240Z,15.77
2018-11-22T23:18:47.888Z,15.33
2018-11-22T23:21:18.597Z,15.10
2018-11-22T23:23:49.282Z,16.77
2018-11-22T23:26:19.984Z,16.00
2018-11-22T23:28:50.718Z,16.73
2018-11-22T23:31:21.424Z,17.30
2018-11-22T23:33:52.096Z,16.20
2018-11-22T23:36:22.782Z,16.83
2018-11-22T23:38:53.435Z,16.90
2018-11-22T23:41:24.129Z,16.13
2018-11-22T23:43:54.750Z,16.27
2018-11-22T23:46:25.457Z,15.50
2018-11-22T23:48:56.141Z,15.87
2018-11-22T23:51:26.843Z,15.80
2018-11-22T23:53:57.554Z,15.30
2018-11-22T23:56:28.194Z,15.43
2018-11-22T23:58:58.901Z,15.27
